sensor_id;sensor_type;location;lat;lon;timestamp;P1;durP1;ratioP1;P2;durP2;ratioP2
74904;SDS011;63465;50.862;6.220;2023-07-31T00:00:05;4.30;;;3.10;;
74904;SDS011;63465;50.862;6.220;2023-07-31T00:02:33;10.40;;;3.23;;
74904;SDS011;63465;50.862;6.220;2023-07-31T00:04:59;6.57;;;3.53;;
74904;SDS011;63465;50.862;6.220;2023-07-31T00:07:25;5.60;;;3.67;;
74904;SDS011;63465;50.862;6.220;2023-07-31T00:09:50;13.47;;;4.17;;
74904;SDS011;63465;50.862;6.220;2023-07-31T00:12:15;11.27;;;3.40;;
74904;SDS011;63465;50.862;6.220;2023-07-31T00:14:40;4.53;;;2.97;;
74904;SDS011;63465;50.862;6.220;2023-07-31T00:17:06;7.87;;;2.90;;
74904;SDS011;63465;50.862;6.220;2023-07-31T00:19:31;9.80;;;3.07;;
74904;SDS011;63465;50.862;6.220;2023-07-31T00:21:56;3.93;;;3.27;;
74904;SDS011;63465;50.862;6.220;2023-07-31T00:24:22;8.30;;;3.33;;
74904;SDS011;63465;50.862;6.220;2023-07-31T00:26:47;5.33;;;3.27;;
74904;SDS011;63465;50.862;6.220;2023-07-31T00:29:12;12.60;;;3.47;;
74904;SDS011;63465;50.862;6.220;2023-07-31T00:31:37;6.47;;;3.00;;
74904;SDS011;63465;50.862;6.220;2023-07-31T00:34:03;7.03;;;3.17;;
74904;SDS011;63465;50.862;6.220;2023-07-31T00:36:28;4.37;;;3.17;;
74904;SDS011;63465;50.862;6.220;2023-07-31T00:38:53;7.00;;;4.07;;
74904;SDS011;63465;50.862;6.220;2023-07-31T00:41:19;6.90;;;2.83;;
74904;SDS011;63465;50.862;6.220;2023-07-31T00:43:44;9.10;;;3.57;;
74904;SDS011;63465;50.862;6.220;2023-07-31T00:46:09;7.63;;;2.73;;
74904;SDS011;63465;50.862;6.220;2023-07-31T00:48:35;8.13;;;3.30;;
74904;SDS011;63465;50.862;6.220;2023-07-31T00:51:01;5.47;;;3.23;;
74904;SDS011;63465;50.862;6.220;2023-07-31T00:53:27;9.27;;;3.70;;
74904;SDS011;63465;50.862;6.220;2023-07-31T00:55:52;12.37;;;3.03;;
74904;SDS011;63465;50.862;6.220;2023-07-31T00:58:18;5.37;;;3.20;;
74904;SDS011;63465;50.862;6.220;2023-07-31T01:00:43;5.97;;;3.17;;
74904;SDS011;63465;50.862;6.220;2023-07-31T01:03:09;7.57;;;3.10;;
74904;SDS011;63465;50.862;6.220;2023-07-31T01:05:49;15.83;;;2.83;;
74904;SDS011;63465;50.862;6.220;2023-07-31T01:08:24;7.97;;;3.50;;
74904;SDS011;63465;50.862;6.220;2023-07-31T01:11:02;4.23;;;3.20;;
74904;SDS011;63465;50.862;6.220;2023-07-31T01:13:36;6.90;;;3.10;;
74904;SDS011;63465;50.862;6.220;2023-07-31T01:16:02;7.07;;;3.27;;
74904;SDS011;63465;50.862;6.220;2023-07-31T01:18:27;6.20;;;3.37;;
74904;SDS011;63465;50.862;6.220;2023-07-31T01:20:54;7.50;;;2.90;;
74904;SDS011;63465;50.862;6.220;2023-07-31T01:23:34;5.03;;;3.60;;
74904;SDS011;63465;50.862;6.220;2023-07-31T01:26:19;6.03;;;3.23;;
74904;SDS011;63465;50.862;6.220;2023-07-31T01:29:03;5.77;;;2.77;;
74904;SDS011;63465;50.862;6.220;2023-07-31T01:31:35;9.73;;;3.37;;
74904;SDS011;63465;50.862;6.220;2023-07-31T01:34:02;8.40;;;3.20;;
74904;SDS011;63465;50.862;6.220;2023-07-31T01:36:30;5.27;;;3.00;;
74904;SDS011;63465;50.862;6.220;2023-07-31T01:38:59;12.73;;;3.73;;
74904;SDS011;63465;50.862;6.220;2023-07-31T01:41:26;5.67;;;3.60;;
74904;SDS011;63465;50.862;6.220;2023-07-31T01:43:51;5.03;;;2.80;;
74904;SDS011;63465;50.862;6.220;2023-07-31T01:46:16;9.03;;;3.30;;
74904;SDS011;63465;50.862;6.220;2023-07-31T01:48:42;6.77;;;2.67;;
74904;SDS011;63465;50.862;6.220;2023-07-31T01:51:07;12.30;;;3.27;;
74904;SDS011;63465;50.862;6.220;2023-07-31T01:53:32;7.53;;;3.87;;
74904;SDS011;63465;50.862;6.220;2023-07-31T01:55:58;7.07;;;3.67;;
74904;SDS011;63465;50.862;6.220;2023-07-31T01:58:23;7.33;;;2.80;;
74904;SDS011;63465;50.862;6.220;2023-07-31T02:00:49;8.60;;;3.07;;
74904;SDS011;63465;50.862;6.220;2023-07-31T02:03:14;5.43;;;2.67;;
74904;SDS011;63465;50.862;6.220;2023-07-31T02:05:45;6.70;;;3.33;;
74904;SDS011;63465;50.862;6.220;2023-07-31T02:08:12;7.13;;;3.40;;
74904;SDS011;63465;50.862;6.220;2023-07-31T02:10:37;7.47;;;2.87;;
74904;SDS011;63465;50.862;6.220;2023-07-31T02:13:02;7.67;;;2.93;;
74904;SDS011;63465;50.862;6.220;2023-07-31T02:15:29;9.53;;;2.90;;
74904;SDS011;63465;50.862;6.220;2023-07-31T02:17:55;8.47;;;3.77;;
74904;SDS011;63465;50.862;6.220;2023-07-31T02:20:20;3.57;;;2.80;;
74904;SDS011;63465;50.862;6.220;2023-07-31T02:22:45;9.50;;;4.33;;
74904;SDS011;63465;50.862;6.220;2023-07-31T02:25:10;17.20;;;3.70;;
74904;SDS011;63465;50.862;6.220;2023-07-31T02:27:36;6.97;;;3.20;;
74904;SDS011;63465;50.862;6.220;2023-07-31T02:30:01;5.67;;;3.40;;
74904;SDS011;63465;50.862;6.220;2023-07-31T02:32:27;7.87;;;3.27;;
74904;SDS011;63465;50.862;6.220;2023-07-31T02:34:52;6.93;;;4.10;;
74904;SDS011;63465;50.862;6.220;2023-07-31T02:37:17;8.13;;;3.50;;
74904;SDS011;63465;50.862;6.220;2023-07-31T02:39:43;7.07;;;3.20;;
74904;SDS011;63465;50.862;6.220;2023-07-31T02:42:08;9.60;;;3.37;;
74904;SDS011;63465;50.862;6.220;2023-07-31T02:44:33;6.50;;;3.67;;
74904;SDS011;63465;50.862;6.220;2023-07-31T02:46:58;11.10;;;3.73;;
74904;SDS011;63465;50.862;6.220;2023-07-31T02:49:24;9.73;;;3.60;;
74904;SDS011;63465;50.862;6.220;2023-07-31T02:51:49;10.90;;;3.50;;
74904;SDS011;63465;50.862;6.220;2023-07-31T02:54:15;14.37;;;3.67;;
74904;SDS011;63465;50.862;6.220;2023-07-31T02:56:40;5.87;;;3.57;;
74904;SDS011;63465;50.862;6.220;2023-07-31T02:59:06;8.63;;;3.80;;
74904;SDS011;63465;50.862;6.220;2023-07-31T03:01:31;10.50;;;3.97;;
74904;SDS011;63465;50.862;6.220;2023-07-31T03:03:56;8.77;;;4.17;;
74904;SDS011;63465;50.862;6.220;2023-07-31T03:06:22;5.73;;;3.50;;
74904;SDS011;63465;50.862;6.220;2023-07-31T03:08:47;5.57;;;3.93;;
74904;SDS011;63465;50.862;6.220;2023-07-31T03:11:12;5.87;;;3.73;;
74904;SDS011;63465;50.862;6.220;2023-07-31T03:13:38;6.67;;;3.60;;
74904;SDS011;63465;50.862;6.220;2023-07-31T03:16:03;8.77;;;5.27;;
74904;SDS011;63465;50.862;6.220;2023-07-31T03:18:28;8.40;;;2.67;;
74904;SDS011;63465;50.862;6.220;2023-07-31T03:20:54;11.03;;;3.80;;
74904;SDS011;63465;50.862;6.220;2023-07-31T03:23:19;5.10;;;4.17;;
74904;SDS011;63465;50.862;6.220;2023-07-31T03:25:57;10.07;;;3.70;;
74904;SDS011;63465;50.862;6.220;2023-07-31T03:28:22;8.97;;;4.30;;
74904;SDS011;63465;50.862;6.220;2023-07-31T03:30:48;12.47;;;3.97;;
74904;SDS011;63465;50.862;6.220;2023-07-31T03:33:13;7.77;;;4.17;;
74904;SDS011;63465;50.862;6.220;2023-07-31T03:35:38;9.47;;;3.80;;
74904;SDS011;63465;50.862;6.220;2023-07-31T03:38:03;12.37;;;4.80;;
74904;SDS011;63465;50.862;6.220;2023-07-31T03:40:29;6.97;;;4.00;;
74904;SDS011;63465;50.862;6.220;2023-07-31T03:42:54;5.47;;;3.70;;
74904;SDS011;63465;50.862;6.220;2023-07-31T03:45:19;6.70;;;3.67;;
74904;SDS011;63465;50.862;6.220;2023-07-31T03:47:45;9.20;;;4.10;;
74904;SDS011;63465;50.862;6.220;2023-07-31T03:50:10;7.80;;;3.70;;
74904;SDS011;63465;50.862;6.220;2023-07-31T03:52:35;4.80;;;3.50;;
74904;SDS011;63465;50.862;6.220;2023-07-31T03:55:00;8.23;;;3.67;;
74904;SDS011;63465;50.862;6.220;2023-07-31T03:57:26;6.10;;;3.97;;
74904;SDS011;63465;50.862;6.220;2023-07-31T03:59:52;7.00;;;3.77;;
74904;SDS011;63465;50.862;6.220;2023-07-31T04:02:17;7.03;;;3.80;;
74904;SDS011;63465;50.862;6.220;2023-07-31T04:04:43;9.53;;;3.60;;
74904;SDS011;63465;50.862;6.220;2023-07-31T04:07:09;6.77;;;3.70;;
74904;SDS011;63465;50.862;6.220;2023-07-31T04:09:34;6.93;;;3.53;;
74904;SDS011;63465;50.862;6.220;2023-07-31T04:11:59;5.10;;;3.57;;
74904;SDS011;63465;50.862;6.220;2023-07-31T04:14:24;5.90;;;3.80;;
74904;SDS011;63465;50.862;6.220;2023-07-31T04:16:50;5.80;;;3.43;;
74904;SDS011;63465;50.862;6.220;2023-07-31T04:19:15;6.00;;;3.50;;
74904;SDS011;63465;50.862;6.220;2023-07-31T04:21:41;15.57;;;3.93;;
74904;SDS011;63465;50.862;6.220;2023-07-31T04:24:07;9.73;;;3.73;;
74904;SDS011;63465;50.862;6.220;2023-07-31T04:26:32;8.40;;;3.47;;
74904;SDS011;63465;50.862;6.220;2023-07-31T04:28:57;5.43;;;3.57;;
74904;SDS011;63465;50.862;6.220;2023-07-31T04:31:23;5.53;;;3.13;;
74904;SDS011;63465;50.862;6.220;2023-07-31T04:33:48;4.37;;;3.23;;
74904;SDS011;63465;50.862;6.220;2023-07-31T04:36:13;4.47;;;3.00;;
74904;SDS011;63465;50.862;6.220;2023-07-31T04:38:39;5.57;;;3.30;;
74904;SDS011;63465;50.862;6.220;2023-07-31T04:41:06;3.97;;;3.40;;
74904;SDS011;63465;50.862;6.220;2023-07-31T04:43:31;5.47;;;2.97;;
74904;SDS011;63465;50.862;6.220;2023-07-31T04:45:56;7.50;;;3.30;;
74904;SDS011;63465;50.862;6.220;2023-07-31T04:48:22;6.83;;;3.03;;
74904;SDS011;63465;50.862;6.220;2023-07-31T04:50:48;5.50;;;3.20;;
74904;SDS011;63465;50.862;6.220;2023-07-31T04:53:13;3.60;;;2.53;;
74904;SDS011;63465;50.862;6.220;2023-07-31T04:55:39;7.33;;;3.93;;
74904;SDS011;63465;50.862;6.220;2023-07-31T04:58:04;9.30;;;3.13;;
74904;SDS011;63465;50.862;6.220;2023-07-31T05:00:29;3.93;;;2.70;;
74904;SDS011;63465;50.862;6.220;2023-07-31T05:02:55;22.53;;;3.60;;
74904;SDS011;63465;50.862;6.220;2023-07-31T05:05:20;3.50;;;2.73;;
74904;SDS011;63465;50.862;6.220;2023-07-31T05:07:45;22.67;;;3.90;;
74904;SDS011;63465;50.862;6.220;2023-07-31T05:10:11;7.27;;;3.10;;
74904;SDS011;63465;50.862;6.220;2023-07-31T05:12:36;4.97;;;3.40;;
74904;SDS011;63465;50.862;6.220;2023-07-31T05:15:01;7.23;;;3.10;;
74904;SDS011;63465;50.862;6.220;2023-07-31T05:17:27;5.10;;;2.40;;
74904;SDS011;63465;50.862;6.220;2023-07-31T05:19:52;6.20;;;2.20;;
74904;SDS011;63465;50.862;6.220;2023-07-31T05:22:17;3.23;;;2.67;;
74904;SDS011;63465;50.862;6.220;2023-07-31T05:24:43;6.23;;;3.07;;
74904;SDS011;63465;50.862;6.220;2023-07-31T05:27:08;6.67;;;3.27;;
74904;SDS011;63465;50.862;6.220;2023-07-31T05:29:34;3.40;;;2.67;;
74904;SDS011;63465;50.862;6.220;2023-07-31T05:32:00;4.40;;;2.97;;
74904;SDS011;63465;50.862;6.220;2023-07-31T05:34:25;4.30;;;3.27;;
74904;SDS011;63465;50.862;6.220;2023-07-31T05:36:50;7.77;;;2.80;;
74904;SDS011;63465;50.862;6.220;2023-07-31T05:39:16;7.20;;;3.13;;
74904;SDS011;63465;50.862;6.220;2023-07-31T05:41:41;26.67;;;3.60;;
74904;SDS011;63465;50.862;6.220;2023-07-31T05:44:06;5.40;;;2.97;;
74904;SDS011;63465;50.862;6.220;2023-07-31T05:46:32;4.50;;;3.23;;
74904;SDS011;63465;50.862;6.220;2023-07-31T05:48:58;5.97;;;3.80;;
74904;SDS011;63465;50.862;6.220;2023-07-31T05:51:25;5.60;;;3.23;;
74904;SDS011;63465;50.862;6.220;2023-07-31T05:53:51;5.37;;;3.60;;
74904;SDS011;63465;50.862;6.220;2023-07-31T05:56:16;15.63;;;3.80;;
74904;SDS011;63465;50.862;6.220;2023-07-31T05:58:41;5.30;;;3.17;;
74904;SDS011;63465;50.862;6.220;2023-07-31T06:01:06;7.73;;;4.00;;
74904;SDS011;63465;50.862;6.220;2023-07-31T06:03:32;6.70;;;3.20;;
74904;SDS011;63465;50.862;6.220;2023-07-31T06:05:57;6.83;;;3.13;;
74904;SDS011;63465;50.862;6.220;2023-07-31T06:08:22;4.40;;;3.03;;
74904;SDS011;63465;50.862;6.220;2023-07-31T06:10:48;6.17;;;3.27;;
74904;SDS011;63465;50.862;6.220;2023-07-31T06:13:13;4.10;;;3.37;;
74904;SDS011;63465;50.862;6.220;2023-07-31T06:15:38;7.13;;;3.10;;
74904;SDS011;63465;50.862;6.220;2023-07-31T06:18:03;5.60;;;2.93;;
74904;SDS011;63465;50.862;6.220;2023-07-31T06:20:32;5.93;;;2.60;;
74904;SDS011;63465;50.862;6.220;2023-07-31T06:22:58;4.20;;;2.53;;
74904;SDS011;63465;50.862;6.220;2023-07-31T06:25:24;8.23;;;2.97;;
74904;SDS011;63465;50.862;6.220;2023-07-31T06:27:49;3.43;;;2.87;;
74904;SDS011;63465;50.862;6.220;2023-07-31T06:30:14;6.23;;;3.27;;
74904;SDS011;63465;50.862;6.220;2023-07-31T06:32:40;7.63;;;3.10;;
74904;SDS011;63465;50.862;6.220;2023-07-31T06:35:05;6.80;;;2.40;;
74904;SDS011;63465;50.862;6.220;2023-07-31T06:37:31;7.83;;;2.37;;
74904;SDS011;63465;50.862;6.220;2023-07-31T06:39:57;5.60;;;3.00;;
74904;SDS011;63465;50.862;6.220;2023-07-31T06:42:22;14.37;;;3.37;;
74904;SDS011;63465;50.862;6.220;2023-07-31T06:44:47;7.93;;;3.40;;
74904;SDS011;63465;50.862;6.220;2023-07-31T06:47:13;6.73;;;2.47;;
74904;SDS011;63465;50.862;6.220;2023-07-31T06:49:38;6.80;;;3.40;;
74904;SDS011;63465;50.862;6.220;2023-07-31T06:52:03;4.07;;;2.67;;
74904;SDS011;63465;50.862;6.220;2023-07-31T06:54:29;5.20;;;3.47;;
74904;SDS011;63465;50.862;6.220;2023-07-31T06:56:54;11.70;;;3.53;;
74904;SDS011;63465;50.862;6.220;2023-07-31T06:59:19;10.00;;;3.07;;
74904;SDS011;63465;50.862;6.220;2023-07-31T07:01:45;4.97;;;3.20;;
74904;SDS011;63465;50.862;6.220;2023-07-31T07:04:10;7.70;;;3.27;;
74904;SDS011;63465;50.862;6.220;2023-07-31T07:06:36;6.10;;;3.00;;
74904;SDS011;63465;50.862;6.220;2023-07-31T07:09:01;3.73;;;2.37;;
74904;SDS011;63465;50.862;6.220;2023-07-31T07:11:27;4.10;;;2.93;;
74904;SDS011;63465;50.862;6.220;2023-07-31T07:13:52;5.57;;;2.83;;
74904;SDS011;63465;50.862;6.220;2023-07-31T07:16:17;4.80;;;2.70;;
74904;SDS011;63465;50.862;6.220;2023-07-31T07:18:43;10.43;;;3.17;;
74904;SDS011;63465;50.862;6.220;2023-07-31T07:21:08;6.80;;;3.47;;
74904;SDS011;63465;50.862;6.220;2023-07-31T07:23:33;3.27;;;2.27;;
74904;SDS011;63465;50.862;6.220;2023-07-31T07:25:59;4.43;;;3.47;;
74904;SDS011;63465;50.862;6.220;2023-07-31T07:28:24;7.00;;;3.20;;
74904;SDS011;63465;50.862;6.220;2023-07-31T07:30:52;2.90;;;1.90;;
74904;SDS011;63465;50.862;6.220;2023-07-31T07:33:20;8.53;;;3.23;;
74904;SDS011;63465;50.862;6.220;2023-07-31T07:35:46;6.53;;;3.00;;
74904;SDS011;63465;50.862;6.220;2023-07-31T07:38:11;5.00;;;3.20;;
74904;SDS011;63465;50.862;6.220;2023-07-31T07:40:39;6.70;;;3.27;;
74904;SDS011;63465;50.862;6.220;2023-07-31T07:43:05;5.90;;;3.20;;
74904;SDS011;63465;50.862;6.220;2023-07-31T07:45:30;5.73;;;2.80;;
74904;SDS011;63465;50.862;6.220;2023-07-31T07:47:55;3.17;;;2.87;;
74904;SDS011;63465;50.862;6.220;2023-07-31T07:50:20;4.93;;;2.90;;
74904;SDS011;63465;50.862;6.220;2023-07-31T07:52:46;6.77;;;3.80;;
74904;SDS011;63465;50.862;6.220;2023-07-31T07:55:11;4.00;;;2.93;;
74904;SDS011;63465;50.862;6.220;2023-07-31T07:57:36;6.83;;;3.00;;
74904;SDS011;63465;50.862;6.220;2023-07-31T08:00:02;4.33;;;3.20;;
74904;SDS011;63465;50.862;6.220;2023-07-31T08:02:27;3.63;;;2.80;;
74904;SDS011;63465;50.862;6.220;2023-07-31T08:04:53;4.70;;;3.10;;
74904;SDS011;63465;50.862;6.220;2023-07-31T08:07:18;5.43;;;2.77;;
74904;SDS011;63465;50.862;6.220;2023-07-31T08:09:43;6.30;;;3.07;;
74904;SDS011;63465;50.862;6.220;2023-07-31T08:12:08;4.93;;;2.57;;
74904;SDS011;63465;50.862;6.220;2023-07-31T08:14:34;4.87;;;3.13;;
74904;SDS011;63465;50.862;6.220;2023-07-31T08:17:00;4.23;;;3.10;;
74904;SDS011;63465;50.862;6.220;2023-07-31T08:19:25;5.23;;;2.27;;
74904;SDS011;63465;50.862;6.220;2023-07-31T08:21:51;8.50;;;2.80;;
74904;SDS011;63465;50.862;6.220;2023-07-31T08:24:16;5.27;;;2.90;;
74904;SDS011;63465;50.862;6.220;2023-07-31T08:26:42;3.37;;;2.23;;
74904;SDS011;63465;50.862;6.220;2023-07-31T08:29:07;7.20;;;2.77;;
74904;SDS011;63465;50.862;6.220;2023-07-31T08:31:32;2.93;;;2.47;;
74904;SDS011;63465;50.862;6.220;2023-07-31T08:33:58;5.07;;;2.50;;
74904;SDS011;63465;50.862;6.220;2023-07-31T08:36:23;6.13;;;3.00;;
74904;SDS011;63465;50.862;6.220;2023-07-31T08:38:49;3.13;;;2.30;;
74904;SDS011;63465;50.862;6.220;2023-07-31T08:41:15;5.80;;;2.83;;
74904;SDS011;63465;50.862;6.220;2023-07-31T08:43:42;4.70;;;2.30;;
74904;SDS011;63465;50.862;6.220;2023-07-31T08:46:09;3.33;;;2.60;;
74904;SDS011;63465;50.862;6.220;2023-07-31T08:48:35;4.03;;;2.10;;
74904;SDS011;63465;50.862;6.220;2023-07-31T08:51:02;3.30;;;2.67;;
74904;SDS011;63465;50.862;6.220;2023-07-31T08:53:28;2.70;;;2.47;;
74904;SDS011;63465;50.862;6.220;2023-07-31T08:55:53;5.13;;;2.90;;
74904;SDS011;63465;50.862;6.220;2023-07-31T08:58:19;5.90;;;3.50;;
74904;SDS011;63465;50.862;6.220;2023-07-31T09:00:46;7.77;;;2.90;;
74904;SDS011;63465;50.862;6.220;2023-07-31T09:03:16;5.93;;;3.10;;
74904;SDS011;63465;50.862;6.220;2023-07-31T09:05:43;4.77;;;2.80;;
74904;SDS011;63465;50.862;6.220;2023-07-31T09:08:12;5.03;;;3.07;;
74904;SDS011;63465;50.862;6.220;2023-07-31T09:10:44;7.50;;;3.17;;
74904;SDS011;63465;50.862;6.220;2023-07-31T09:13:17;4.33;;;3.20;;
74904;SDS011;63465;50.862;6.220;2023-07-31T09:15:43;6.63;;;3.40;;
74904;SDS011;63465;50.862;6.220;2023-07-31T09:18:09;10.13;;;3.23;;
74904;SDS011;63465;50.862;6.220;2023-07-31T09:20:35;9.37;;;2.83;;
74904;SDS011;63465;50.862;6.220;2023-07-31T09:25:39;7.50;;;3.10;;
74904;SDS011;63465;50.862;6.220;2023-07-31T09:28:08;4.67;;;2.70;;
74904;SDS011;63465;50.862;6.220;2023-07-31T09:30:47;2.90;;;2.30;;
74904;SDS011;63465;50.862;6.220;2023-07-31T09:33:14;4.63;;;2.70;;
74904;SDS011;63465;50.862;6.220;2023-07-31T09:35:39;9.20;;;2.83;;
74904;SDS011;63465;50.862;6.220;2023-07-31T09:38:17;3.10;;;2.80;;
74904;SDS011;63465;50.862;6.220;2023-07-31T09:40:44;3.90;;;2.57;;
74904;SDS011;63465;50.862;6.220;2023-07-31T09:46:29;4.30;;;3.20;;
74904;SDS011;63465;50.862;6.220;2023-07-31T09:49:03;3.57;;;2.80;;
74904;SDS011;63465;50.862;6.220;2023-07-31T09:51:30;3.20;;;2.90;;
74904;SDS011;63465;50.862;6.220;2023-07-31T09:53:56;2.80;;;2.27;;
74904;SDS011;63465;50.862;6.220;2023-07-31T09:56:21;5.10;;;2.67;;
74904;SDS011;63465;50.862;6.220;2023-07-31T09:58:48;2.83;;;2.00;;
74904;SDS011;63465;50.862;6.220;2023-07-31T10:01:14;3.00;;;2.53;;
74904;SDS011;63465;50.862;6.220;2023-07-31T10:03:39;4.20;;;2.50;;
74904;SDS011;63465;50.862;6.220;2023-07-31T10:06:05;4.87;;;3.07;;
74904;SDS011;63465;50.862;6.220;2023-07-31T10:08:34;5.07;;;3.17;;
74904;SDS011;63465;50.862;6.220;2023-07-31T10:11:01;1.93;;;1.83;;
74904;SDS011;63465;50.862;6.220;2023-07-31T10:13:28;4.00;;;2.37;;
74904;SDS011;63465;50.862;6.220;2023-07-31T10:15:56;2.87;;;2.57;;
74904;SDS011;63465;50.862;6.220;2023-07-31T10:18:24;3.53;;;2.23;;
74904;SDS011;63465;50.862;6.220;2023-07-31T10:20:51;4.60;;;2.60;;
74904;SDS011;63465;50.862;6.220;2023-07-31T10:23:17;5.67;;;1.97;;
74904;SDS011;63465;50.862;6.220;2023-07-31T10:25:43;2.93;;;1.97;;
74904;SDS011;63465;50.862;6.220;2023-07-31T10:28:09;1.30;;;1.30;;
74904;SDS011;63465;50.862;6.220;2023-07-31T10:30:36;3.93;;;1.93;;
74904;SDS011;63465;50.862;6.220;2023-07-31T10:33:03;3.17;;;2.10;;
74904;SDS011;63465;50.862;6.220;2023-07-31T10:35:30;1.60;;;1.50;;
74904;SDS011;63465;50.862;6.220;2023-07-31T10:37:55;2.00;;;1.90;;
74904;SDS011;63465;50.862;6.220;2023-07-31T10:40:35;2.80;;;2.27;;
74904;SDS011;63465;50.862;6.220;2023-07-31T10:43:01;1.70;;;1.60;;
74904;SDS011;63465;50.862;6.220;2023-07-31T10:45:39;2.77;;;1.80;;
74904;SDS011;63465;50.862;6.220;2023-07-31T10:48:14;2.07;;;1.97;;
74904;SDS011;63465;50.862;6.220;2023-07-31T10:50:50;6.80;;;2.30;;
74904;SDS011;63465;50.862;6.220;2023-07-31T10:53:23;1.40;;;1.33;;
74904;SDS011;63465;50.862;6.220;2023-07-31T10:55:48;1.93;;;1.57;;
74904;SDS011;63465;50.862;6.220;2023-07-31T10:58:16;1.67;;;1.57;;
74904;SDS011;63465;50.862;6.220;2023-07-31T11:00:44;3.40;;;2.00;;
74904;SDS011;63465;50.862;6.220;2023-07-31T11:03:12;1.90;;;1.80;;
74904;SDS011;63465;50.862;6.220;2023-07-31T11:05:42;1.40;;;1.20;;
74904;SDS011;63465;50.862;6.220;2023-07-31T11:10:48;1.40;;;1.30;;
74904;SDS011;63465;50.862;6.220;2023-07-31T11:13:15;1.97;;;1.43;;
74904;SDS011;63465;50.862;6.220;2023-07-31T11:15:40;1.80;;;1.23;;
74904;SDS011;63465;50.862;6.220;2023-07-31T11:18:06;1.70;;;1.60;;
74904;SDS011;63465;50.862;6.220;2023-07-31T11:20:33;1.53;;;1.30;;
74904;SDS011;63465;50.862;6.220;2023-07-31T11:23:00;1.40;;;1.30;;
74904;SDS011;63465;50.862;6.220;2023-07-31T11:25:28;1.60;;;1.43;;
74904;SDS011;63465;50.862;6.220;2023-07-31T11:27:54;2.27;;;2.07;;
74904;SDS011;63465;50.862;6.220;2023-07-31T11:30:21;1.80;;;1.70;;
74904;SDS011;63465;50.862;6.220;2023-07-31T11:32:46;2.37;;;2.17;;
74904;SDS011;63465;50.862;6.220;2023-07-31T11:35:12;5.10;;;2.10;;
74904;SDS011;63465;50.862;6.220;2023-07-31T11:37:41;2.10;;;1.60;;
74904;SDS011;63465;50.862;6.220;2023-07-31T11:40:07;3.13;;;1.87;;
74904;SDS011;63465;50.862;6.220;2023-07-31T11:42:34;2.00;;;1.37;;
74904;SDS011;63465;50.862;6.220;2023-07-31T11:45:02;4.60;;;2.40;;
74904;SDS011;63465;50.862;6.220;2023-07-31T11:47:28;2.50;;;2.10;;
74904;SDS011;63465;50.862;6.220;2023-07-31T11:49:53;2.67;;;2.43;;
74904;SDS011;63465;50.862;6.220;2023-07-31T11:52:19;2.30;;;2.00;;
74904;SDS011;63465;50.862;6.220;2023-07-31T11:54:45;2.70;;;2.27;;
74904;SDS011;63465;50.862;6.220;2023-07-31T11:57:11;3.13;;;2.30;;
74904;SDS011;63465;50.862;6.220;2023-07-31T11:59:38;2.70;;;2.50;;
74904;SDS011;63465;50.862;6.220;2023-07-31T12:02:04;3.87;;;2.50;;
74904;SDS011;63465;50.862;6.220;2023-07-31T12:04:30;3.27;;;2.97;;
74904;SDS011;63465;50.862;6.220;2023-07-31T12:06:56;3.10;;;2.77;;
74904;SDS011;63465;50.862;6.220;2023-07-31T12:09:21;8.30;;;2.90;;
74904;SDS011;63465;50.862;6.220;2023-07-31T12:11:46;2.97;;;2.67;;
74904;SDS011;63465;50.862;6.220;2023-07-31T12:16:57;2.50;;;2.30;;
74904;SDS011;63465;50.862;6.220;2023-07-31T12:19:27;2.30;;;2.10;;
74904;SDS011;63465;50.862;6.220;2023-07-31T12:21:54;6.60;;;2.40;;
74904;SDS011;63465;50.862;6.220;2023-07-31T12:24:20;4.03;;;2.70;;
74904;SDS011;63465;50.862;6.220;2023-07-31T12:26:46;2.97;;;2.70;;
74904;SDS011;63465;50.862;6.220;2023-07-31T12:29:12;3.87;;;2.70;;
74904;SDS011;63465;50.862;6.220;2023-07-31T12:31:37;4.10;;;2.10;;
74904;SDS011;63465;50.862;6.220;2023-07-31T12:34:14;5.33;;;2.60;;
74904;SDS011;63465;50.862;6.220;2023-07-31T12:36:42;3.10;;;2.90;;
74904;SDS011;63465;50.862;6.220;2023-07-31T12:39:07;3.00;;;2.80;;
74904;SDS011;63465;50.862;6.220;2023-07-31T12:41:33;3.03;;;2.63;;
74904;SDS011;63465;50.862;6.220;2023-07-31T12:43:58;3.90;;;2.67;;
74904;SDS011;63465;50.862;6.220;2023-07-31T12:46:24;3.77;;;2.23;;
74904;SDS011;63465;50.862;6.220;2023-07-31T12:48:49;2.03;;;1.87;;
74904;SDS011;63465;50.862;6.220;2023-07-31T12:51:14;3.63;;;2.77;;
74904;SDS011;63465;50.862;6.220;2023-07-31T12:53:39;2.83;;;2.00;;
74904;SDS011;63465;50.862;6.220;2023-07-31T12:56:05;5.07;;;2.87;;
74904;SDS011;63465;50.862;6.220;2023-07-31T12:58:30;3.33;;;2.67;;
74904;SDS011;63465;50.862;6.220;2023-07-31T13:00:56;4.90;;;2.67;;
74904;SDS011;63465;50.862;6.220;2023-07-31T13:03:21;2.30;;;1.93;;
74904;SDS011;63465;50.862;6.220;2023-07-31T13:05:46;10.53;;;2.20;;
74904;SDS011;63465;50.862;6.220;2023-07-31T13:08:12;3.40;;;2.57;;
74904;SDS011;63465;50.862;6.220;2023-07-31T13:10:37;3.00;;;2.10;;
74904;SDS011;63465;50.862;6.220;2023-07-31T13:13:02;1.77;;;1.67;;
74904;SDS011;63465;50.862;6.220;2023-07-31T13:15:28;2.03;;;1.60;;
74904;SDS011;63465;50.862;6.220;2023-07-31T13:17:53;2.23;;;2.07;;
74904;SDS011;63465;50.862;6.220;2023-07-31T13:20:18;2.83;;;2.60;;
74904;SDS011;63465;50.862;6.220;2023-07-31T13:22:44;3.90;;;2.10;;
74904;SDS011;63465;50.862;6.220;2023-07-31T13:25:09;5.07;;;2.37;;
74904;SDS011;63465;50.862;6.220;2023-07-31T13:27:35;3.13;;;2.90;;
74904;SDS011;63465;50.862;6.220;2023-07-31T13:30:00;3.30;;;2.17;;
74904;SDS011;63465;50.862;6.220;2023-07-31T13:32:26;4.43;;;2.60;;
74904;SDS011;63465;50.862;6.220;2023-07-31T13:34:51;3.73;;;2.30;;
74904;SDS011;63465;50.862;6.220;2023-07-31T13:37:16;2.77;;;1.83;;
74904;SDS011;63465;50.862;6.220;2023-07-31T13:39:42;3.00;;;2.47;;
74904;SDS011;63465;50.862;6.220;2023-07-31T13:42:08;4.20;;;2.53;;
74904;SDS011;63465;50.862;6.220;2023-07-31T13:44:36;3.17;;;2.80;;
74904;SDS011;63465;50.862;6.220;2023-07-31T13:47:02;3.30;;;2.63;;
74904;SDS011;63465;50.862;6.220;2023-07-31T13:49:27;5.57;;;3.07;;
74904;SDS011;63465;50.862;6.220;2023-07-31T13:51:53;4.77;;;2.90;;
74904;SDS011;63465;50.862;6.220;2023-07-31T13:54:19;3.77;;;2.83;;
74904;SDS011;63465;50.862;6.220;2023-07-31T13:56:44;4.20;;;2.70;;
74904;SDS011;63465;50.862;6.220;2023-07-31T13:59:10;5.70;;;3.20;;
74904;SDS011;63465;50.862;6.220;2023-07-31T14:01:36;4.40;;;3.50;;
74904;SDS011;63465;50.862;6.220;2023-07-31T14:04:01;3.47;;;3.17;;
74904;SDS011;63465;50.862;6.220;2023-07-31T14:06:27;4.20;;;2.77;;
74904;SDS011;63465;50.862;6.220;2023-07-31T14:08:52;3.57;;;3.07;;
74904;SDS011;63465;50.862;6.220;2023-07-31T14:11:17;3.70;;;2.90;;
74904;SDS011;63465;50.862;6.220;2023-07-31T14:13:43;7.17;;;3.40;;
74904;SDS011;63465;50.862;6.220;2023-07-31T14:16:08;9.67;;;3.40;;
74904;SDS011;63465;50.862;6.220;2023-07-31T14:18:33;3.43;;;2.90;;
74904;SDS011;63465;50.862;6.220;2023-07-31T14:20:59;3.57;;;2.53;;
74904;SDS011;63465;50.862;6.220;2023-07-31T14:23:24;5.10;;;2.93;;
74904;SDS011;63465;50.862;6.220;2023-07-31T14:25:50;6.50;;;3.47;;
74904;SDS011;63465;50.862;6.220;2023-07-31T14:28:15;4.20;;;2.70;;
74904;SDS011;63465;50.862;6.220;2023-07-31T14:30:40;2.97;;;2.67;;
74904;SDS011;63465;50.862;6.220;2023-07-31T14:33:05;6.70;;;3.27;;
74904;SDS011;63465;50.862;6.220;2023-07-31T14:35:31;3.90;;;3.37;;
74904;SDS011;63465;50.862;6.220;2023-07-31T14:37:56;2.97;;;2.67;;
74904;SDS011;63465;50.862;6.220;2023-07-31T14:40:22;3.53;;;2.93;;
74904;SDS011;63465;50.862;6.220;2023-07-31T14:42:47;3.20;;;2.87;;
74904;SDS011;63465;50.862;6.220;2023-07-31T14:45:12;3.53;;;2.50;;
74904;SDS011;63465;50.862;6.220;2023-07-31T14:47:38;5.80;;;2.93;;
74904;SDS011;63465;50.862;6.220;2023-07-31T14:50:03;4.17;;;3.40;;